Map

Track Data

SID SEASON NUMBER BASIN SUBBASIN NAME ISO_TIME NATURE LAT LON WMO_WIND WMO_PRES WMO_AGENCY TRACK_TYPE DIST2LAND LANDFALL IFLAG USA_AGENCY USA_ATCF_ID USA_LAT USA_LON USA_RECORD USA_STATUS USA_WIND USA_PRES USA_SSHS USA_R34_NE USA_R34_SE USA_R34_SW USA_R34_NW USA_R50_NE USA_R50_SE USA_R50_SW USA_R50_NW USA_R64_NE USA_R64_SE USA_R64_SW USA_R64_NW USA_POCI USA_ROCI USA_RMW USA_EYE TOKYO_LAT TOKYO_LON TOKYO_GRADE TOKYO_WIND TOKYO_PRES TOKYO_R50_DIR TOKYO_R50_LONG TOKYO_R50_SHORT TOKYO_R30_DIR TOKYO_R30_LONG TOKYO_R30_SHORT TOKYO_LAND CMA_LAT CMA_LON CMA_CAT CMA_WIND CMA_PRES HKO_LAT HKO_LON HKO_CAT HKO_WIND HKO_PRES NEWDELHI_LAT NEWDELHI_LON NEWDELHI_GRADE NEWDELHI_WIND NEWDELHI_PRES NEWDELHI_CI NEWDELHI_DP NEWDELHI_POCI REUNION_LAT REUNION_LON REUNION_TYPE REUNION_WIND REUNION_PRES REUNION_TNUM REUNION_CI REUNION_RMW REUNION_R34_NE REUNION_R34_SE REUNION_R34_SW REUNION_R34_NW REUNION_R50_NE REUNION_R50_SE REUNION_R50_SW REUNION_R50_NW REUNION_R64_NE REUNION_R64_SE REUNION_R64_SW REUNION_R64_NW BOM_LAT BOM_LON BOM_TYPE BOM_WIND BOM_PRES BOM_TNUM BOM_CI BOM_RMW BOM_R34_NE BOM_R34_SE BOM_R34_SW BOM_R34_NW BOM_R50_NE BOM_R50_SE BOM_R50_SW BOM_R50_NW BOM_R64_NE BOM_R64_SE BOM_R64_SW BOM_R64_NW BOM_ROCI BOM_POCI BOM_EYE BOM_POS_METHOD BOM_PRES_METHOD NADI_LAT NADI_LON NADI_CAT NADI_WIND NADI_PRES WELLINGTON_LAT WELLINGTON_LON WELLINGTON_WIND WELLINGTON_PRES DS824_LAT DS824_LON DS824_STAGE DS824_WIND DS824_PRES TD9636_LAT TD9636_LON TD9636_STAGE TD9636_WIND TD9636_PRES TD9635_LAT TD9635_LON TD9635_WIND TD9635_PRES TD9635_ROCI NEUMANN_LAT NEUMANN_LON NEUMANN_CLASS NEUMANN_WIND NEUMANN_PRES MLC_LAT MLC_LON MLC_CLASS MLC_WIND MLC_PRES USA_GUST BOM_GUST BOM_GUST_PER REUNION_GUST REUNION_GUST_PER USA_SEAHGT USA_SEARAD_NE USA_SEARAD_SE USA_SEARAD_SW USA_SEARAD_NW STORM_SPEED STORM_DIR
1961290N20282 1961 107 NA CS GERDA 1961-10-17 00:00:00 TS 19.7000 -77.9000 30 1003 hurdat_atl main 23 20 O_____________ hurdat_atl AL081961 19.7000 -77.9000 TD 30 1003 -1 4 345
1961290N20282 1961 107 NA CS GERDA 1961-10-17 03:00:00 TS 19.9025 -77.9600 main 33 33 P_____________ AL081961 19.9025 -77.9600 TD 30 1002 -1 4 347
1961290N20282 1961 107 NA CS GERDA 1961-10-17 06:00:00 TS 20.1000 -78.0000 30 1002 hurdat_atl main 41 41 O_____________ hurdat_atl AL081961 20.1000 -78.0000 TD 30 1002 -1 4 355
1961290N20282 1961 107 NA CS GERDA 1961-10-17 09:00:00 TS 20.2925 -78.0075 main 44 22 P_____________ AL081961 20.2925 -78.0075 TD 30 1002 -1 4 0
1961290N20282 1961 107 NA CS GERDA 1961-10-17 12:00:00 TS 20.5000 -78.0000 30 hurdat_atl main 22 0 I_____________ hurdat_atl AL081961 20.5000 -78.0000 TD 30 1002 -1 4 0
1961290N20282 1961 107 NA CS GERDA 1961-10-17 15:00:00 TS 20.7350 -78.0000 main 0 0 P_____________ AL081961 20.7350 -78.0000 TD 30 1002 -1 5 2
1961290N20282 1961 107 NA NA GERDA 1961-10-17 18:00:00 TS 21.0000 -78.0000 30 1002 hurdat_atl main 0 0 O_____________ hurdat_atl AL081961 21.0000 -78.0000 TD 30 1002 -1 5 358
1961290N20282 1961 107 NA NA GERDA 1961-10-17 21:00:00 TS 21.2700 -78.0074 main 0 0 P_____________ AL081961 21.2700 -78.0074 TD 30 1002 -1 6 1
1961290N20282 1961 107 NA NA GERDA 1961-10-18 00:00:00 TS 21.6000 -78.0000 30 1002 hurdat_atl main 0 0 O_____________ hurdat_atl AL081961 21.6000 -78.0000 TD 30 1002 -1 8 2
1961290N20282 1961 107 NA NA GERDA 1961-10-18 03:00:00 TS 22.0200 -77.9650 main 0 0 P_____________ AL081961 22.0200 -77.9650 TD 32 1002 -1 9 5
1961290N20282 1961 107 NA NA GERDA 1961-10-18 06:00:00 TS 22.5000 -77.9000 35 hurdat_atl main 56 56 I_____________ hurdat_atl AL081961 22.5000 -77.9000 TS 35 1002 0 10 7
1961290N20282 1961 107 NA NA GERDA 1961-10-18 09:00:00 TS 22.9924 -77.8298 main 99 83 P_____________ AL081961 22.9924 -77.8298 TS 35 1002 0 10 11
1961290N20282 1961 107 NA NA GERDA 1961-10-18 12:00:00 TS 23.5000 -77.7000 35 1003 hurdat_atl main 83 52 O_____________ hurdat_atl AL081961 23.5000 -77.7000 TS 35 1003 0 10 17
1961290N20282 1961 107 NA NA GERDA 1961-10-18 15:00:00 TS 23.9924 -77.5021 main 52 41 P_____________ AL081961 23.9924 -77.5021 TS 37 1003 0 11 25
1961290N20282 1961 107 NA NA GERDA 1961-10-18 18:00:00 TS 24.5000 -77.2000 40 1003 hurdat_atl main 50 50 O_____________ hurdat_atl AL081961 24.5000 -77.2000 TS 40 1003 0 12 31
1961290N20282 1961 107 NA NA GERDA 1961-10-18 21:00:00 TS 25.0348 -76.8095 main 106 106 P_____________ AL081961 25.0348 -76.8095 TS 40 1003 0 14 37
1961290N20282 1961 107 NA NA GERDA 1961-10-19 00:00:00 TS 25.6000 -76.3000 40 1003 hurdat_atl main 178 178 O_____________ hurdat_atl AL081961 25.6000 -76.3000 TS 40 1003 0 15 42
1961290N20282 1961 107 NA NA GERDA 1961-10-19 03:00:00 TS 26.1624 -75.6940 main 261 261 P_____________ AL081961 26.1624 -75.6940 TS 45 1002 0 17 44
1961290N20282 1961 107 NA NA GERDA 1961-10-19 06:00:00 TS 26.8000 -75.0000 50 1001 hurdat_atl main 354 354 O_____________ hurdat_atl AL081961 26.8000 -75.0000 TS 50 1001 0 19 42
1961290N20282 1961 107 NA NA GERDA 1961-10-19 09:00:00 TS 27.5471 -74.2788 main 455 455 P_____________ AL081961 27.5471 -74.2788 TS 52 1000 0 21 40
1961290N20282 1961 107 NA NA GERDA 1961-10-19 12:00:00 TS 28.4000 -73.5000 55 999 hurdat_atl main 578 578 O_____________ hurdat_atl AL081961 28.4000 -73.5000 TS 55 999 0 22 40
1961290N20282 1961 107 NA NA GERDA 1961-10-19 15:00:00 TS 29.2301 -72.6544 main 695 661 P_____________ AL081961 29.2301 -72.6544 TS 57 994 0 24 38
1961290N20282 1961 107 NA NA GERDA 1961-10-19 18:00:00 TS 30.3000 -71.8000 60 989 hurdat_atl main 658 606 O_____________ hurdat_atl AL081961 30.3000 -71.8000 TS 60 989 0 29 30
1961290N20282 1961 107 NA NA GERDA 1961-10-19 21:00:00 TS 31.7800 -70.9770 main 600 550 P_____________ AL081961 31.7800 -70.9770 TS 60 988 0 35 23
1961290N20282 1961 107 NA NA GERDA 1961-10-20 00:00:00 TS 33.5000 -70.2000 60 hurdat_atl main 547 536 I_____________ hurdat_atl AL081961 33.5000 -70.2000 TS 60 988 0 38 20
1961290N20282 1961 107 NA NA GERDA 1961-10-20 03:00:00 TS 35.3174 -69.4274 main 553 537 P_____________ AL081961 35.3174 -69.4274 TS 60 988 0 37 18
1961290N20282 1961 107 NA NA GERDA 1961-10-20 06:00:00 TS 37.0000 -68.8000 60 988 hurdat_atl main 526 409 O_____________ hurdat_atl AL081961 37.0000 -68.8000 TS 60 988 0 31 15
1961290N20282 1961 107 NA NA GERDA 1961-10-20 09:00:00 TS 38.3063 -68.4425 main 402 307 P_____________ AL081961 38.3063 -68.4425 TS 60 0 24 12
1961290N20282 1961 107 NA NA GERDA 1961-10-20 12:00:00 ET 39.3000 -68.2000 60 hurdat_atl main 307 250 O_____________ hurdat_atl AL081961 39.3000 -68.2000 EX 60 -4 19 13
1961290N20282 1961 107 NA NA GERDA 1961-10-20 15:00:00 ET 40.1116 -67.9156 main 250 233 P_____________ AL081961 40.1116 -67.9156 EX 60 -4 15 21
1961290N20282 1961 107 NA NA GERDA 1961-10-20 18:00:00 ET 40.7000 -67.5000 60 hurdat_atl main 236 236 O_____________ hurdat_atl AL081961 40.7000 -67.5000 EX 60 -4 13 39
1961290N20282 1961 107 NA NA GERDA 1961-10-20 21:00:00 ET 41.1379 -66.8090 main 274 223 P_____________ AL081961 41.1379 -66.8090 EX 62 -4 14 55
1961290N20282 1961 107 NA NA GERDA 1961-10-21 00:00:00 ET 41.5000 -66.0000 65 hurdat_atl main 223 177 O_____________ hurdat_atl AL081961 41.5000 -66.0000 EX 65 -4 14 55
1961290N20282 1961 107 NA NA GERDA 1961-10-21 03:00:00 ET 41.9491 -65.2715 main 177 134 P_____________ AL081961 41.9491 -65.2715 EX 62 -4 14 51
1961290N20282 1961 107 NA NA GERDA 1961-10-21 06:00:00 ET 42.4000 -64.5000 60 hurdat_atl main 138 132 O_____________ hurdat_atl AL081961 42.4000 -64.5000 EX 60 -4 15 55
1961290N20282 1961 107 NA NA GERDA 1961-10-21 09:00:00 ET 42.8078 -63.5994 main 147 144 P_____________ AL081961 42.8078 -63.5994 EX 55 -4 15 59
1961290N20282 1961 107 NA NA GERDA 1961-10-21 12:00:00 ET 43.2000 -62.7000 50 994 hurdat_atl main 151 134 O_____________ hurdat_atl AL081961 43.2000 -62.7000 EX 50 994 -4 14 54
1961290N20282 1961 107 NA NA GERDA 1961-10-21 15:00:00 ET 43.6418 -62.0168 main 137 117 P_____________ AL081961 43.6418 -62.0168 EX 47 -4 13 54
1961290N20282 1961 107 NA NA GERDA 1961-10-21 18:00:00 ET 44.0000 -61.2000 45 hurdat_atl main 124 123 O_____________ hurdat_atl AL081961 44.0000 -61.2000 EX 45 -4 15 70
1961290N20282 1961 107 NA NA GERDA 1961-10-21 21:00:00 ET 44.1401 -60.0716 main 145 145 P_____________ AL081961 44.1401 -60.0716 EX 40 -4 19 84
1961290N20282 1961 107 NA NA GERDA 1961-10-22 00:00:00 ET 44.2000 -58.5000 35 hurdat_atl main 215 215 O_____________ hurdat_atl AL081961 44.2000 -58.5000 EX 35 -4 26 86
1961290N20282 1961 107 NA NA GERDA 1961-10-22 03:00:00 ET 44.3015 -56.3990 main 283 247 P_____________ AL081961 44.3015 -56.3990 EX 35 -4 32 86
1961290N20282 1961 107 NA NA GERDA 1961-10-22 06:00:00 ET 44.4000 -54.0000 35 hurdat_atl main 246 235 O_____________ hurdat_atl AL081961 44.4000 -54.0000 EX 35 -4 34 87
1961290N20282 1961 107 NA NA GERDA 1961-10-22 09:00:00 ET 44.5063 -51.6274 main 264 264 P_____________ AL081961 44.5063 -51.6274 EX 35 -4 33 87
1961290N20282 1961 107 NA NA GERDA 1961-10-22 12:00:00 ET 44.6000 -49.3000 35 hurdat_atl main 375 O_____________ hurdat_atl AL081961 44.6000 -49.3000 EX 35 -4 33 87

About IBTrACS Database

This database is a web-friendly format of International Best Track Archive for Climate Stewardship (IBTrACS), a global best track data archive curated by NOAA dating back to 1842.

Updated: 2021-12-06